sensor_id;sensor_type;location;lat;lon;timestamp;pressure;altitude;pressure_sealevel;temperature;humidity
75460;BME280;64039;53.060;9.342;2024-02-28T00:00:23;101573.47;;;3.05;100.00
75460;BME280;64039;53.060;9.342;2024-02-28T00:02:48;101572.00;;;2.68;100.00
75460;BME280;64039;53.060;9.342;2024-02-28T00:05:14;101563.66;;;2.59;100.00
75460;BME280;64039;53.060;9.342;2024-02-28T00:07:39;101563.84;;;2.48;100.00
75460;BME280;64039;53.060;9.342;2024-02-28T00:10:05;101571.94;;;2.28;100.00
75460;BME280;64039;53.060;9.342;2024-02-28T00:12:31;101570.44;;;2.18;100.00
75460;BME280;64039;53.060;9.342;2024-02-28T00:14:56;101576.19;;;2.02;100.00
75460;BME280;64039;53.060;9.342;2024-02-28T00:17:21;101569.91;;;2.10;100.00
75460;BME280;64039;53.060;9.342;2024-02-28T00:19:47;101576.56;;;1.95;100.00
75460;BME280;64039;53.060;9.342;2024-02-28T00:22:13;101575.91;;;2.11;100.00
75460;BME280;64039;53.060;9.342;2024-02-28T00:24:38;101581.75;;;2.08;100.00
75460;BME280;64039;53.060;9.342;2024-02-28T00:27:04;101584.59;;;1.62;100.00
75460;BME280;64039;53.060;9.342;2024-02-28T00:29:29;101590.56;;;1.37;100.00
75460;BME280;64039;53.060;9.342;2024-02-28T00:31:55;101586.81;;;1.20;100.00
75460;BME280;64039;53.060;9.342;2024-02-28T00:34:20;101594.03;;;1.38;100.00
75460;BME280;64039;53.060;9.342;2024-02-28T00:36:45;101585.69;;;1.66;100.00
75460;BME280;64039;53.060;9.342;2024-02-28T00:39:11;101583.41;;;1.82;100.00
75460;BME280;64039;53.060;9.342;2024-02-28T00:41:37;101588.16;;;2.01;100.00
75460;BME280;64039;53.060;9.342;2024-02-28T00:44:03;101579.22;;;1.96;100.00
75460;BME280;64039;53.060;9.342;2024-02-28T00:46:28;101577.50;;;2.09;100.00
75460;BME280;64039;53.060;9.342;2024-02-28T00:48:53;101570.59;;;2.08;100.00
75460;BME280;64039;53.060;9.342;2024-02-28T00:51:19;101574.63;;;2.04;100.00
75460;BME280;64039;53.060;9.342;2024-02-28T00:53:44;101574.69;;;1.92;100.00
75460;BME280;64039;53.060;9.342;2024-02-28T00:56:10;101573.47;;;1.87;100.00
75460;BME280;64039;53.060;9.342;2024-02-28T00:58:35;101581.28;;;1.88;100.00
75460;BME280;64039;53.060;9.342;2024-02-28T01:01:01;101585.38;;;1.61;100.00
75460;BME280;64039;53.060;9.342;2024-02-28T01:03:26;101577.81;;;1.63;100.00
75460;BME280;64039;53.060;9.342;2024-02-28T01:05:51;101581.91;;;1.72;100.00
75460;BME280;64039;53.060;9.342;2024-02-28T01:08:17;101576.72;;;1.84;100.00
75460;BME280;64039;53.060;9.342;2024-02-28T01:10:44;101567.81;;;1.79;100.00
75460;BME280;64039;53.060;9.342;2024-02-28T01:13:09;101565.13;;;1.52;100.00
75460;BME280;64039;53.060;9.342;2024-02-28T01:15:35;101559.53;;;1.58;100.00
75460;BME280;64039;53.060;9.342;2024-02-28T01:18:00;101561.00;;;1.54;100.00
75460;BME280;64039;53.060;9.342;2024-02-28T01:20:25;101563.38;;;1.39;100.00
75460;BME280;64039;53.060;9.342;2024-02-28T01:22:51;101551.72;;;1.45;100.00
75460;BME280;64039;53.060;9.342;2024-02-28T01:25:17;101553.28;;;1.54;100.00
75460;BME280;64039;53.060;9.342;2024-02-28T01:27:42;101561.00;;;1.80;100.00
75460;BME280;64039;53.060;9.342;2024-02-28T01:30:08;101555.25;;;1.59;100.00
75460;BME280;64039;53.060;9.342;2024-02-28T01:32:34;101563.97;;;1.61;100.00
75460;BME280;64039;53.060;9.342;2024-02-28T01:34:59;101562.56;;;1.78;100.00
75460;BME280;64039;53.060;9.342;2024-02-28T01:37:25;101562.47;;;1.76;100.00
75460;BME280;64039;53.060;9.342;2024-02-28T01:39:50;101558.38;;;1.66;100.00
75460;BME280;64039;53.060;9.342;2024-02-28T01:42:15;101552.41;;;1.79;100.00
75460;BME280;64039;53.060;9.342;2024-02-28T01:44:44;101556.19;;;1.84;100.00
75460;BME280;64039;53.060;9.342;2024-02-28T01:47:11;101557.78;;;1.70;100.00
75460;BME280;64039;53.060;9.342;2024-02-28T01:49:37;101550.03;;;1.57;100.00
75460;BME280;64039;53.060;9.342;2024-02-28T01:52:03;101558.78;;;1.72;100.00
75460;BME280;64039;53.060;9.342;2024-02-28T01:54:29;101549.72;;;1.52;100.00
75460;BME280;64039;53.060;9.342;2024-02-28T01:56:56;101548.94;;;1.53;100.00
75460;BME280;64039;53.060;9.342;2024-02-28T01:59:23;101541.41;;;1.31;100.00
75460;BME280;64039;53.060;9.342;2024-02-28T02:01:50;101541.31;;;1.30;100.00
75460;BME280;64039;53.060;9.342;2024-02-28T02:04:15;101535.56;;;1.08;100.00
75460;BME280;64039;53.060;9.342;2024-02-28T02:06:42;101539.00;;;0.97;100.00
75460;BME280;64039;53.060;9.342;2024-02-28T02:09:09;101540.34;;;1.04;100.00
75460;BME280;64039;53.060;9.342;2024-02-28T02:11:35;101544.41;;;1.37;100.00
75460;BME280;64039;53.060;9.342;2024-02-28T02:14:00;101543.78;;;1.16;100.00
75460;BME280;64039;53.060;9.342;2024-02-28T02:16:26;101539.78;;;1.08;100.00
75460;BME280;64039;53.060;9.342;2024-02-28T02:18:52;101538.34;;;1.00;100.00
75460;BME280;64039;53.060;9.342;2024-02-28T02:21:19;101547.03;;;1.14;100.00
75460;BME280;64039;53.060;9.342;2024-02-28T02:23:47;101553.69;;;1.23;100.00
75460;BME280;64039;53.060;9.342;2024-02-28T02:26:12;101548.22;;;1.19;100.00
75460;BME280;64039;53.060;9.342;2024-02-28T02:28:38;101546.91;;;1.12;100.00
75460;BME280;64039;53.060;9.342;2024-02-28T02:31:03;101550.03;;;1.08;100.00
75460;BME280;64039;53.060;9.342;2024-02-28T02:33:29;101551.28;;;1.13;100.00
75460;BME280;64039;53.060;9.342;2024-02-28T02:35:54;101550.47;;;1.02;100.00
75460;BME280;64039;53.060;9.342;2024-02-28T02:38:20;101554.97;;;1.05;100.00
75460;BME280;64039;53.060;9.342;2024-02-28T02:40:50;101555.59;;;1.14;100.00
75460;BME280;64039;53.060;9.342;2024-02-28T02:43:15;101560.88;;;1.04;100.00
75460;BME280;64039;53.060;9.342;2024-02-28T02:45:41;101557.38;;;1.03;100.00
75460;BME280;64039;53.060;9.342;2024-02-28T02:48:06;101549.03;;;1.06;100.00
75460;BME280;64039;53.060;9.342;2024-02-28T02:50:32;101554.22;;;1.31;100.00
75460;BME280;64039;53.060;9.342;2024-02-28T02:52:57;101555.75;;;1.41;100.00
75460;BME280;64039;53.060;9.342;2024-02-28T02:55:22;101561.22;;;1.46;100.00
75460;BME280;64039;53.060;9.342;2024-02-28T02:57:48;101565.59;;;1.35;100.00
75460;BME280;64039;53.060;9.342;2024-02-28T03:00:14;101567.59;;;1.39;100.00
75460;BME280;64039;53.060;9.342;2024-02-28T03:02:39;101566.56;;;1.49;100.00
75460;BME280;64039;53.060;9.342;2024-02-28T03:05:05;101562.59;;;1.40;100.00
75460;BME280;64039;53.060;9.342;2024-02-28T03:07:31;101560.25;;;1.32;100.00
75460;BME280;64039;53.060;9.342;2024-02-28T03:09:57;101555.88;;;1.31;100.00
75460;BME280;64039;53.060;9.342;2024-02-28T03:12:23;101548.97;;;1.41;100.00
75460;BME280;64039;53.060;9.342;2024-02-28T03:14:48;101550.13;;;1.33;100.00
75460;BME280;64039;53.060;9.342;2024-02-28T03:17:14;101552.22;;;1.27;100.00
75460;BME280;64039;53.060;9.342;2024-02-28T03:19:41;101550.13;;;1.33;100.00
75460;BME280;64039;53.060;9.342;2024-02-28T03:22:06;101548.09;;;1.29;100.00
75460;BME280;64039;53.060;9.342;2024-02-28T03:24:32;101545.31;;;1.26;100.00
75460;BME280;64039;53.060;9.342;2024-02-28T03:27:03;101549.00;;;1.18;100.00
75460;BME280;64039;53.060;9.342;2024-02-28T03:29:28;101549.84;;;1.05;100.00
75460;BME280;64039;53.060;9.342;2024-02-28T03:31:54;101546.03;;;1.00;100.00
75460;BME280;64039;53.060;9.342;2024-02-28T03:34:19;101544.91;;;0.96;100.00
75460;BME280;64039;53.060;9.342;2024-02-28T03:36:45;101548.59;;;0.88;100.00
75460;BME280;64039;53.060;9.342;2024-02-28T03:39:11;101545.72;;;0.83;100.00
75460;BME280;64039;53.060;9.342;2024-02-28T03:41:37;101545.03;;;0.86;100.00
75460;BME280;64039;53.060;9.342;2024-02-28T03:44:03;101554.75;;;0.90;100.00
75460;BME280;64039;53.060;9.342;2024-02-28T03:46:29;101559.63;;;0.99;100.00
75460;BME280;64039;53.060;9.342;2024-02-28T03:48:55;101559.19;;;1.04;100.00
75460;BME280;64039;53.060;9.342;2024-02-28T03:51:20;101561.28;;;1.10;100.00
75460;BME280;64039;53.060;9.342;2024-02-28T03:53:46;101569.41;;;1.16;100.00
75460;BME280;64039;53.060;9.342;2024-02-28T03:56:11;101575.47;;;1.05;100.00
75460;BME280;64039;53.060;9.342;2024-02-28T03:58:37;101571.31;;;1.19;100.00
75460;BME280;64039;53.060;9.342;2024-02-28T04:01:02;101568.06;;;1.09;100.00
75460;BME280;64039;53.060;9.342;2024-02-28T04:03:28;101577.88;;;1.27;100.00
75460;BME280;64039;53.060;9.342;2024-02-28T04:05:54;101573.31;;;1.60;100.00
75460;BME280;64039;53.060;9.342;2024-02-28T04:08:19;101577.22;;;1.67;100.00
75460;BME280;64039;53.060;9.342;2024-02-28T04:10:45;101576.16;;;1.51;100.00
75460;BME280;64039;53.060;9.342;2024-02-28T04:13:11;101573.25;;;1.47;100.00
75460;BME280;64039;53.060;9.342;2024-02-28T04:15:36;101578.75;;;1.39;100.00
75460;BME280;64039;53.060;9.342;2024-02-28T04:18:02;101571.94;;;1.40;100.00
75460;BME280;64039;53.060;9.342;2024-02-28T04:20:28;101577.47;;;1.58;100.00
75460;BME280;64039;53.060;9.342;2024-02-28T04:22:54;101577.47;;;1.58;100.00
75460;BME280;64039;53.060;9.342;2024-02-28T04:25:19;101570.25;;;1.52;100.00
75460;BME280;64039;53.060;9.342;2024-02-28T04:27:44;101565.53;;;1.59;100.00
75460;BME280;64039;53.060;9.342;2024-02-28T04:30:12;101574.44;;;1.64;100.00
75460;BME280;64039;53.060;9.342;2024-02-28T04:32:37;101571.81;;;1.50;100.00
75460;BME280;64039;53.060;9.342;2024-02-28T04:35:03;101568.97;;;1.71;100.00
75460;BME280;64039;53.060;9.342;2024-02-28T04:37:29;101569.47;;;1.53;100.00
75460;BME280;64039;53.060;9.342;2024-02-28T04:39:54;101575.94;;;1.48;100.00
75460;BME280;64039;53.060;9.342;2024-02-28T04:42:20;101575.94;;;1.48;100.00
75460;BME280;64039;53.060;9.342;2024-02-28T04:44:45;101579.19;;;1.46;100.00
75460;BME280;64039;53.060;9.342;2024-02-28T04:47:10;101572.25;;;1.45;100.00
75460;BME280;64039;53.060;9.342;2024-02-28T04:49:37;101574.97;;;1.34;100.00
75460;BME280;64039;53.060;9.342;2024-02-28T04:52:03;101577.00;;;1.27;100.00
75460;BME280;64039;53.060;9.342;2024-02-28T04:54:29;101586.13;;;1.35;100.00
75460;BME280;64039;53.060;9.342;2024-02-28T04:56:54;101584.78;;;1.28;100.00
75460;BME280;64039;53.060;9.342;2024-02-28T04:59:19;101582.81;;;1.24;100.00
75460;BME280;64039;53.060;9.342;2024-02-28T05:01:45;101581.78;;;1.34;100.00
75460;BME280;64039;53.060;9.342;2024-02-28T05:04:11;101581.66;;;1.32;100.00
75460;BME280;64039;53.060;9.342;2024-02-28T05:06:37;101578.31;;;1.33;100.00
75460;BME280;64039;53.060;9.342;2024-02-28T05:09:02;101584.56;;;1.37;100.00
75460;BME280;64039;53.060;9.342;2024-02-28T05:11:28;101588.13;;;1.27;100.00
75460;BME280;64039;53.060;9.342;2024-02-28T05:13:53;101593.47;;;1.30;100.00
75460;BME280;64039;53.060;9.342;2024-02-28T05:16:18;101586.25;;;1.24;100.00
75460;BME280;64039;53.060;9.342;2024-02-28T05:18:44;101585.09;;;1.45;100.00
75460;BME280;64039;53.060;9.342;2024-02-28T05:21:11;101592.25;;;1.37;100.00
75460;BME280;64039;53.060;9.342;2024-02-28T05:23:36;101579.78;;;1.30;100.00
75460;BME280;64039;53.060;9.342;2024-02-28T05:26:02;101588.34;;;1.42;100.00
75460;BME280;64039;53.060;9.342;2024-02-28T05:28:29;101586.53;;;1.41;100.00
75460;BME280;64039;53.060;9.342;2024-02-28T05:30:55;101592.16;;;1.23;100.00
75460;BME280;64039;53.060;9.342;2024-02-28T05:33:21;101587.78;;;1.22;100.00
75460;BME280;64039;53.060;9.342;2024-02-28T05:35:46;101601.53;;;1.11;100.00
75460;BME280;64039;53.060;9.342;2024-02-28T05:38:12;101601.19;;;1.18;100.00
75460;BME280;64039;53.060;9.342;2024-02-28T05:40:37;101597.97;;;1.09;100.00
75460;BME280;64039;53.060;9.342;2024-02-28T05:43:03;101607.66;;;1.01;100.00
75460;BME280;64039;53.060;9.342;2024-02-28T05:45:29;101615.81;;;0.96;100.00
75460;BME280;64039;53.060;9.342;2024-02-28T05:47:55;101613.13;;;0.94;100.00
75460;BME280;64039;53.060;9.342;2024-02-28T05:50:20;101615.34;;;0.89;100.00
75460;BME280;64039;53.060;9.342;2024-02-28T05:52:46;101611.56;;;0.96;100.00
75460;BME280;64039;53.060;9.342;2024-02-28T05:55:12;101611.03;;;1.00;100.00
75460;BME280;64039;53.060;9.342;2024-02-28T05:57:38;101621.72;;;0.83;100.00
75460;BME280;64039;53.060;9.342;2024-02-28T06:00:04;101613.34;;;0.85;100.00
75460;BME280;64039;53.060;9.342;2024-02-28T06:02:36;101621.25;;;0.76;100.00
75460;BME280;64039;53.060;9.342;2024-02-28T06:05:03;101621.47;;;0.68;100.00
75460;BME280;64039;53.060;9.342;2024-02-28T06:07:29;101636.59;;;0.65;100.00
75460;BME280;64039;53.060;9.342;2024-02-28T06:09:54;101633.28;;;0.77;100.00
75460;BME280;64039;53.060;9.342;2024-02-28T06:12:20;101638.28;;;0.64;100.00
75460;BME280;64039;53.060;9.342;2024-02-28T06:14:45;101638.59;;;0.57;100.00
75460;BME280;64039;53.060;9.342;2024-02-28T06:17:11;101647.75;;;0.53;100.00
75460;BME280;64039;53.060;9.342;2024-02-28T06:19:36;101647.59;;;0.52;100.00
75460;BME280;64039;53.060;9.342;2024-02-28T06:22:02;101649.28;;;0.51;100.00
75460;BME280;64039;53.060;9.342;2024-02-28T06:24:28;101645.25;;;0.43;100.00
75460;BME280;64039;53.060;9.342;2024-02-28T06:26:53;101656.38;;;0.43;100.00
75460;BME280;64039;53.060;9.342;2024-02-28T06:29:18;101654.66;;;0.54;100.00
75460;BME280;64039;53.060;9.342;2024-02-28T06:31:50;101658.69;;;0.62;100.00
75460;BME280;64039;53.060;9.342;2024-02-28T06:34:16;101666.19;;;0.49;100.00
75460;BME280;64039;53.060;9.342;2024-02-28T06:36:41;101660.72;;;0.44;100.00
75460;BME280;64039;53.060;9.342;2024-02-28T06:39:06;101661.06;;;0.49;100.00
75460;BME280;64039;53.060;9.342;2024-02-28T06:41:32;101669.81;;;0.63;100.00
75460;BME280;64039;53.060;9.342;2024-02-28T06:43:57;101673.03;;;0.60;100.00
75460;BME280;64039;53.060;9.342;2024-02-28T06:46:23;101678.09;;;0.71;100.00
75460;BME280;64039;53.060;9.342;2024-02-28T06:48:48;101670.84;;;0.89;100.00
75460;BME280;64039;53.060;9.342;2024-02-28T06:51:16;101665.72;;;0.89;100.00
75460;BME280;64039;53.060;9.342;2024-02-28T06:53:42;101663.84;;;0.86;100.00
75460;BME280;64039;53.060;9.342;2024-02-28T06:56:07;101663.63;;;1.07;100.00
75460;BME280;64039;53.060;9.342;2024-02-28T06:58:33;101654.72;;;1.02;100.00
75460;BME280;64039;53.060;9.342;2024-02-28T07:00:58;101667.19;;;1.09;100.00
75460;BME280;64039;53.060;9.342;2024-02-28T07:03:23;101659.16;;;1.16;100.00
75460;BME280;64039;53.060;9.342;2024-02-28T07:05:49;101665.22;;;1.17;100.00
75460;BME280;64039;53.060;9.342;2024-02-28T07:08:14;101663.75;;;1.20;100.00
75460;BME280;64039;53.060;9.342;2024-02-28T07:10:40;101665.06;;;1.27;100.00
75460;BME280;64039;53.060;9.342;2024-02-28T07:13:08;101661.28;;;1.46;100.00
75460;BME280;64039;53.060;9.342;2024-02-28T07:15:34;101665.50;;;1.57;100.00
75460;BME280;64039;53.060;9.342;2024-02-28T07:18:00;101670.84;;;1.48;100.00
75460;BME280;64039;53.060;9.342;2024-02-28T07:20:25;101669.72;;;1.68;100.00
75460;BME280;64039;53.060;9.342;2024-02-28T07:22:51;101677.63;;;1.71;100.00
75460;BME280;64039;53.060;9.342;2024-02-28T07:25:16;101677.09;;;1.76;100.00
75460;BME280;64039;53.060;9.342;2024-02-28T07:27:41;101685.00;;;1.67;100.00
75460;BME280;64039;53.060;9.342;2024-02-28T07:30:07;101673.50;;;1.73;100.00
75460;BME280;64039;53.060;9.342;2024-02-28T07:32:33;101682.88;;;1.61;100.00
75460;BME280;64039;53.060;9.342;2024-02-28T07:35:01;101682.31;;;1.77;100.00
75460;BME280;64039;53.060;9.342;2024-02-28T07:37:26;101689.44;;;1.81;100.00
75460;BME280;64039;53.060;9.342;2024-02-28T07:39:51;101688.88;;;1.85;100.00
75460;BME280;64039;53.060;9.342;2024-02-28T07:42:17;101687.09;;;1.84;100.00
75460;BME280;64039;53.060;9.342;2024-02-28T07:44:43;101692.19;;;1.96;100.00
75460;BME280;64039;53.060;9.342;2024-02-28T07:47:08;101692.22;;;1.84;100.00
75460;BME280;64039;53.060;9.342;2024-02-28T07:49:34;101693.91;;;1.96;100.00
75460;BME280;64039;53.060;9.342;2024-02-28T07:51:59;101694.94;;;1.74;100.00
75460;BME280;64039;53.060;9.342;2024-02-28T07:54:24;101699.59;;;1.80;100.00
75460;BME280;64039;53.060;9.342;2024-02-28T07:56:50;101698.03;;;1.94;100.00
75460;BME280;64039;53.060;9.342;2024-02-28T07:59:15;101705.31;;;1.76;100.00
75460;BME280;64039;53.060;9.342;2024-02-28T08:01:41;101695.47;;;1.82;100.00
75460;BME280;64039;53.060;9.342;2024-02-28T08:04:07;101698.25;;;1.97;100.00
75460;BME280;64039;53.060;9.342;2024-02-28T08:06:32;101704.00;;;2.18;100.00
75460;BME280;64039;53.060;9.342;2024-02-28T08:08:58;101701.72;;;2.23;100.00
75460;BME280;64039;53.060;9.342;2024-02-28T08:11:24;101705.22;;;2.11;100.00
75460;BME280;64039;53.060;9.342;2024-02-28T08:13:50;101710.28;;;2.35;100.00
75460;BME280;64039;53.060;9.342;2024-02-28T08:16:16;101713.63;;;2.34;100.00
75460;BME280;64039;53.060;9.342;2024-02-28T08:18:41;101722.13;;;2.33;100.00
75460;BME280;64039;53.060;9.342;2024-02-28T08:21:06;101716.19;;;2.34;100.00
75460;BME280;64039;53.060;9.342;2024-02-28T08:23:32;101717.38;;;2.51;100.00
75460;BME280;64039;53.060;9.342;2024-02-28T08:25:57;101711.28;;;2.37;100.00
75460;BME280;64039;53.060;9.342;2024-02-28T08:28:23;101716.75;;;2.42;100.00
75460;BME280;64039;53.060;9.342;2024-02-28T08:30:49;101713.91;;;2.50;100.00
75460;BME280;64039;53.060;9.342;2024-02-28T08:33:14;101724.78;;;2.46;100.00
75460;BME280;64039;53.060;9.342;2024-02-28T08:35:40;101724.97;;;2.75;100.00
75460;BME280;64039;53.060;9.342;2024-02-28T08:38:05;101715.97;;;2.81;100.00
75460;BME280;64039;53.060;9.342;2024-02-28T08:40:31;101727.72;;;3.17;100.00
75460;BME280;64039;53.060;9.342;2024-02-28T08:42:56;101727.94;;;3.20;100.00
75460;BME280;64039;53.060;9.342;2024-02-28T08:45:22;101722.91;;;3.48;100.00
75460;BME280;64039;53.060;9.342;2024-02-28T08:47:48;101739.13;;;3.34;100.00
75460;BME280;64039;53.060;9.342;2024-02-28T08:50:13;101746.25;;;3.65;100.00
75460;BME280;64039;53.060;9.342;2024-02-28T08:52:39;101746.94;;;3.75;100.00
75460;BME280;64039;53.060;9.342;2024-02-28T08:55:04;101747.34;;;3.68;100.00
75460;BME280;64039;53.060;9.342;2024-02-28T08:57:30;101744.06;;;3.84;100.00
75460;BME280;64039;53.060;9.342;2024-02-28T08:59:56;101754.97;;;3.93;100.00
75460;BME280;64039;53.060;9.342;2024-02-28T09:02:21;101743.47;;;3.88;100.00
75460;BME280;64039;53.060;9.342;2024-02-28T09:04:47;101749.94;;;3.82;100.00
75460;BME280;64039;53.060;9.342;2024-02-28T09:07:17;101748.16;;;3.81;100.00
75460;BME280;64039;53.060;9.342;2024-02-28T09:09:45;101754.06;;;3.93;100.00
75460;BME280;64039;53.060;9.342;2024-02-28T09:12:11;101754.25;;;3.83;100.00
75460;BME280;64039;53.060;9.342;2024-02-28T09:14:36;101754.50;;;3.72;100.00
75460;BME280;64039;53.060;9.342;2024-02-28T09:17:02;101745.41;;;4.06;100.00
75460;BME280;64039;53.060;9.342;2024-02-28T09:19:31;101758.16;;;4.18;100.00
75460;BME280;64039;53.060;9.342;2024-02-28T09:21:57;101759.22;;;4.35;100.00
75460;BME280;64039;53.060;9.342;2024-02-28T09:24:23;101755.94;;;4.37;100.00
75460;BME280;64039;53.060;9.342;2024-02-28T09:26:49;101759.41;;;4.38;100.00
75460;BME280;64039;53.060;9.342;2024-02-28T09:29:14;101763.34;;;4.46;100.00
75460;BME280;64039;53.060;9.342;2024-02-28T09:31:39;101758.91;;;4.44;100.00
75460;BME280;64039;53.060;9.342;2024-02-28T09:34:05;101758.03;;;4.30;100.00
75460;BME280;64039;53.060;9.342;2024-02-28T09:36:53;101761.19;;;4.39;100.00
75460;BME280;64039;53.060;9.342;2024-02-28T09:39:18;101752.34;;;4.07;100.00
75460;BME280;64039;53.060;9.342;2024-02-28T09:41:48;101766.66;;;4.02;100.00
75460;BME280;64039;53.060;9.342;2024-02-28T09:44:16;101761.47;;;4.15;100.00
75460;BME280;64039;53.060;9.342;2024-02-28T09:46:42;101760.00;;;4.05;100.00
75460;BME280;64039;53.060;9.342;2024-02-28T09:49:09;101767.31;;;3.99;100.00
75460;BME280;64039;53.060;9.342;2024-02-28T09:51:35;101765.91;;;4.18;100.00
75460;BME280;64039;53.060;9.342;2024-02-28T09:54:04;101777.53;;;4.11;100.00
75460;BME280;64039;53.060;9.342;2024-02-28T09:56:31;101766.91;;;4.20;100.00
75460;BME280;64039;53.060;9.342;2024-02-28T09:58:57;101777.06;;;4.32;100.00
75460;BME280;64039;53.060;9.342;2024-02-28T10:01:22;101775.78;;;4.25;100.00
75460;BME280;64039;53.060;9.342;2024-02-28T10:03:50;101777.00;;;4.17;100.00
75460;BME280;64039;53.060;9.342;2024-02-28T10:06:18;101778.03;;;4.05;100.00
75460;BME280;64039;53.060;9.342;2024-02-28T10:08:44;101776.34;;;4.06;100.00
75460;BME280;64039;53.060;9.342;2024-02-28T10:11:17;101770.38;;;4.07;100.00
75460;BME280;64039;53.060;9.342;2024-02-28T10:13:43;101768.81;;;3.96;100.00
75460;BME280;64039;53.060;9.342;2024-02-28T10:16:08;101770.59;;;4.10;100.00
75460;BME280;64039;53.060;9.342;2024-02-28T10:18:34;101770.47;;;4.08;100.00
75460;BME280;64039;53.060;9.342;2024-02-28T10:20:59;101766.63;;;4.44;100.00
75460;BME280;64039;53.060;9.342;2024-02-28T10:23:26;101773.44;;;4.56;100.00
75460;BME280;64039;53.060;9.342;2024-02-28T10:25:52;101773.84;;;4.49;100.00
75460;BME280;64039;53.060;9.342;2024-02-28T10:28:18;101772.84;;;4.61;100.00
75460;BME280;64039;53.060;9.342;2024-02-28T10:30:44;101781.66;;;4.64;100.00
75460;BME280;64039;53.060;9.342;2024-02-28T10:33:11;101777.22;;;4.77;100.00
75460;BME280;64039;53.060;9.342;2024-02-28T10:35:38;101783.91;;;4.88;100.00
75460;BME280;64039;53.060;9.342;2024-02-28T10:38:04;101783.41;;;5.09;100.00
75460;BME280;64039;53.060;9.342;2024-02-28T10:40:30;101776.47;;;5.23;100.00
75460;BME280;64039;53.060;9.342;2024-02-28T10:42:55;101775.38;;;4.89;100.00
75460;BME280;64039;53.060;9.342;2024-02-28T10:45:24;101776.28;;;5.04;100.00
75460;BME280;64039;53.060;9.342;2024-02-28T10:47:51;101779.88;;;5.07;100.00
75460;BME280;64039;53.060;9.342;2024-02-28T10:50:17;101790.66;;;4.86;100.00
75460;BME280;64039;53.060;9.342;2024-02-28T10:52:44;101793.72;;;5.09;100.00
75460;BME280;64039;53.060;9.342;2024-02-28T10:55:12;101795.28;;;5.35;100.00
75460;BME280;64039;53.060;9.342;2024-02-28T10:57:39;101784.38;;;5.11;100.00
75460;BME280;64039;53.060;9.342;2024-02-28T11:00:05;101788.22;;;5.02;100.00
75460;BME280;64039;53.060;9.342;2024-02-28T11:02:31;101791.25;;;5.40;100.00
75460;BME280;64039;53.060;9.342;2024-02-28T11:04:57;101787.34;;;5.47;100.00
75460;BME280;64039;53.060;9.342;2024-02-28T11:07:25;101793.84;;;5.40;100.00
75460;BME280;64039;53.060;9.342;2024-02-28T11:09:54;101796.53;;;5.27;100.00
75460;BME280;64039;53.060;9.342;2024-02-28T11:12:29;101790.19;;;5.22;100.00
75460;BME280;64039;53.060;9.342;2024-02-28T11:15:03;101790.53;;;5.13;100.00
75460;BME280;64039;53.060;9.342;2024-02-28T11:17:32;101800.88;;;5.43;100.00
75460;BME280;64039;53.060;9.342;2024-02-28T11:19:58;101791.72;;;5.48;100.00
75460;BME280;64039;53.060;9.342;2024-02-28T11:22:23;101796.50;;;5.72;100.00
75460;BME280;64039;53.060;9.342;2024-02-28T11:24:49;101797.28;;;5.71;100.00
75460;BME280;64039;53.060;9.342;2024-02-28T11:27:19;101800.41;;;5.50;100.00
75460;BME280;64039;53.060;9.342;2024-02-28T11:29:44;101794.28;;;5.48;100.00
75460;BME280;64039;53.060;9.342;2024-02-28T11:32:12;101799.00;;;5.40;100.00
75460;BME280;64039;53.060;9.342;2024-02-28T11:34:39;101796.75;;;5.46;100.00
75460;BME280;64039;53.060;9.342;2024-02-28T11:37:08;101803.09;;;5.37;100.00
75460;BME280;64039;53.060;9.342;2024-02-28T11:39:34;101808.81;;;5.46;100.00
75460;BME280;64039;53.060;9.342;2024-02-28T11:42:12;101803.34;;;5.26;100.00
75460;BME280;64039;53.060;9.342;2024-02-28T11:44:42;101802.50;;;5.41;100.00
75460;BME280;64039;53.060;9.342;2024-02-28T11:47:09;101804.06;;;5.24;100.00
75460;BME280;64039;53.060;9.342;2024-02-28T11:49:37;101806.47;;;5.35;100.00
75460;BME280;64039;53.060;9.342;2024-02-28T11:52:02;101807.09;;;5.46;100.00
75460;BME280;64039;53.060;9.342;2024-02-28T11:54:29;101805.50;;;5.48;100.00
75460;BME280;64039;53.060;9.342;2024-02-28T11:56:55;101801.50;;;5.39;100.00
75460;BME280;64039;53.060;9.342;2024-02-28T11:59:20;101803.09;;;5.07;100.00
75460;BME280;64039;53.060;9.342;2024-02-28T12:01:46;101800.59;;;5.38;100.00
75460;BME280;64039;53.060;9.342;2024-02-28T12:04:12;101797.50;;;5.44;100.00
75460;BME280;64039;53.060;9.342;2024-02-28T12:06:38;101793.91;;;5.12;100.00
75460;BME280;64039;53.060;9.342;2024-02-28T12:09:06;101793.34;;;4.87;100.00
75460;BME280;64039;53.060;9.342;2024-02-28T12:11:34;101786.06;;;4.95;100.00
75460;BME280;64039;53.060;9.342;2024-02-28T12:14:04;101793.88;;;4.97;100.00
75460;BME280;64039;53.060;9.342;2024-02-28T12:16:32;101782.28;;;5.18;100.00
75460;BME280;64039;53.060;9.342;2024-02-28T12:18:57;101780.63;;;4.91;100.00
75460;BME280;64039;53.060;9.342;2024-02-28T12:21:23;101782.53;;;5.08;100.00
75460;BME280;64039;53.060;9.342;2024-02-28T12:23:49;101777.38;;;5.08;100.00
75460;BME280;64039;53.060;9.342;2024-02-28T12:26:16;101777.97;;;5.04;100.00
75460;BME280;64039;53.060;9.342;2024-02-28T12:28:43;101772.91;;;5.06;100.00
75460;BME280;64039;53.060;9.342;2024-02-28T12:31:08;101775.38;;;5.04;100.00
75460;BME280;64039;53.060;9.342;2024-02-28T12:33:37;101774.88;;;5.10;100.00
75460;BME280;64039;53.060;9.342;2024-02-28T12:36:02;101775.50;;;5.06;100.00
75460;BME280;64039;53.060;9.342;2024-02-28T12:38:29;101774.16;;;4.97;100.00
75460;BME280;64039;53.060;9.342;2024-02-28T12:40:55;101780.97;;;4.97;100.00
75460;BME280;64039;53.060;9.342;2024-02-28T12:43:20;101777.72;;;4.99;100.00